Minneapolis/St.Paul Radar Twin Cities Traffic Info Map
Radar Satellite Traffic Traffic Cams
Updated: @ 07-Jul-2015 9:00pm - next update at 9:15pm  
Summary / Temperature Wind Rain Outlook
Clear Clear
Visibility: 10 miles
Currently: 64.2, Max: 73.2, Min: 50.4 64.2°F
Colder 2.4°F than last hour.

Comfortable

Heat Index: 64°F

24-hr difference
-1.1°FColder 1.1°F than yesterday at this time.
  Today Yesterday
High: 73.2°F
6:13pm
76.0°F
12:00am
Low: 50.4°F
5:56am
58.0°F
11:58pm
 Calm N
0.0
Gust:
0.0 mph
0 Bft - Calm
Today: 15.0 mph 9:43am
Gust Month: 24.0 mph July 6
Rain Today: 0.00 in
Rain Rate (/hr): 0.00 in
Rain Yesterday: 2.60 in
This Month: 2.60 in
Season Total: 14.35 in
1 day since last rain.
Tonight

Tonight: Mostly clear, with a low around 52. Calm wind becoming south around 5 mph after midnight. Mostly Clear
Humidity & Barometer Almanac Moon
Humidity: 58 % Increased 9.0% since last hour.
Dew Point: 49.1°F Increased 1.5°F since last hour.
Barometer: 30.074 inHg  
Baro Trend: Steady
Sunrise: 5:35am
Sunset: 9:00pm
Moonset: 12:13pm
Moonrise: 11:55pm
Waning Gibbous
Waning Gibbous, Moon at 20 days in cycle
63%
Illuminated
UV Index Forecast UV Index Forecast
07-Jul-2015
7.7     High 
08-Jul-2015
8.2     Very High 
 NWS Weather Forecast:
 

The forecast is not available

Current Airlake Airport METAR Observation:
2015/07/08 01:48 KLVN 080148Z AUTO 00000KT 10SM CLR 15/12 A3011 RMK AO2